Deer Lodge (38S)
Deer Lodge, MT
Field Elevation: 4692
Lat: 49°23.27N  Long: 112°45.89W
CTAF/Unicom Freq: 120.0250
   
     For Weather-by-Phone, call 406-846-1177
Weather Advisories
2017-02-21   23:28 Z
Altimeter 29.70" Hg
Wind 150° @ 14 KT
Gusts 18 KT
Visibility 10 SM
Temperature 6° C (43° F)
Dewpoint -3° C (27° F)
Relative Humidity 51%
Density Altitude --
Condensation Altitude 9,400 feet
Wind Chill: 2° C (36° F)
Wind and Runways
Indicated Runway = 12
Headwind = 12 kt
Crosswind = 7 kt
History
 
 
 
More Info
NOAA Forecast
 
 
About Us
Belfort Instrument
 
 
FAA Disclaimer: The data displayed is for advisory purposes only and is not to be used for flight planning or operations. For official data, please call 406-846-1177 to hear the current automated AWOS voice message.
  METAR 38S 212328Z AUTO 15014G18KT 10 SM 06/M03 A2970